Time;durP1;ratioP1;P1;durP2;ratioP2;P2;SDS_P1;SDS_P2;PMS_P1;PMS_P2;Temp;Humidity;BMP_temperature;BMP_pressure;BME280_temperature;BME280_humidity;BME280_pressure;Samples;Min_cycle;Max_cycle;Signal;HPM_P1;HPM_P2
2022/05/11 00:00:06;;;;;;;12.77;7.35;;;13.80;99.90;;;;;;5051245;28;20041;-78
2022/05/11 00:02:32;;;;;;;14.10;7.13;;;13.80;99.90;;;;;;5050984;28;20107;-78
2022/05/11 00:04:58;;;;;;;11.80;6.65;;;13.80;99.90;;;;;;5050310;28;20408;-79
2022/05/11 00:07:23;;;;;;;11.68;7.07;;;13.80;99.90;;;;;;5051132;28;20546;-78
2022/05/11 00:09:49;;;;;;;9.45;7.00;;;13.80;99.90;;;;;;5050992;28;20037;-78
2022/05/11 00:12:15;;;;;;;13.15;7.63;;;13.80;99.90;;;;;;5050996;28;20041;-79
2022/05/11 00:14:40;;;;;;;12.10;7.35;;;13.70;99.90;;;;;;5050199;28;20251;-79
2022/05/11 00:17:06;;;;;;;15.77;8.25;;;13.70;99.90;;;;;;5051003;28;20052;-78
2022/05/11 00:19:32;;;;;;;13.82;8.10;;;13.70;99.90;;;;;;5050732;28;20048;-79
2022/05/11 00:21:58;;;;;;;13.35;8.32;;;13.70;99.90;;;;;;5050692;28;20419;-79
2022/05/11 00:24:25;;;;;;;14.23;8.02;;;13.70;99.90;;;;;;5050117;28;20048;-79
2022/05/11 00:26:51;;;;;;;11.23;7.60;;;13.70;99.90;;;;;;5050951;28;20067;-79
2022/05/11 00:29:16;;;;;;;13.52;7.57;;;13.70;99.90;;;;;;5050871;28;20135;-79
2022/05/11 00:31:42;;;;;;;11.35;7.45;;;13.80;99.90;;;;;;5050634;28;20037;-79
2022/05/11 00:34:07;;;;;;;11.40;7.03;;;13.80;99.90;;;;;;5049881;28;20499;-79
2022/05/11 00:36:33;;;;;;;10.38;7.28;;;13.80;99.90;;;;;;5050553;28;20040;-79
2022/05/11 00:38:58;;;;;;;12.50;7.43;;;13.80;99.90;;;;;;5050536;28;20125;-79
2022/05/11 00:41:24;;;;;;;12.48;7.20;;;13.80;99.90;;;;;;5050494;28;20039;-78
2022/05/11 00:43:54;;;;;;;12.70;6.95;;;13.80;99.90;;;;;;5049734;28;20083;-78
2022/05/11 00:46:36;;;;;;;14.70;7.35;;;13.90;99.90;;;;;;5050815;28;20467;-78
2022/05/11 00:51:57;;;;;;;13.23;7.15;;;13.90;99.90;;;;;;5050171;28;20084;-78
2022/05/11 00:54:23;;;;;;;11.45;7.28;;;13.90;99.90;;;;;;5049781;28;20516;-79
2022/05/11 00:56:53;;;;;;;12.25;6.90;;;13.90;99.90;;;;;;5050320;28;20048;-79
2022/05/11 00:59:26;;;;;;;12.65;7.18;;;13.90;99.90;;;;;;5050550;28;20392;-79
2022/05/11 01:01:53;;;;;;;10.43;6.93;;;13.90;99.90;;;;;;5049957;28;20052;-79
2022/05/11 01:04:21;;;;;;;10.05;6.60;;;14.00;99.90;;;;;;5049404;28;20043;-79
2022/05/11 01:06:47;;;;;;;10.30;7.00;;;14.00;99.90;;;;;;5049617;28;20402;-78
2022/05/11 01:09:14;;;;;;;12.73;7.10;;;14.00;99.90;;;;;;5050065;28;20040;-79
2022/05/11 01:11:49;;;;;;;13.73;7.20;;;14.00;99.90;;;;;;5049965;28;20037;-79
2022/05/11 01:14:24;;;;;;;12.10;7.15;;;14.00;99.90;;;;;;5049324;28;20174;-79
2022/05/11 01:16:49;;;;;;;11.73;7.63;;;14.00;99.90;;;;;;5049763;28;20048;-78
2022/05/11 01:19:25;;;;;;;10.27;6.82;;;14.00;99.90;;;;;;5049287;28;20514;-78
2022/05/11 01:21:58;;;;;;;15.25;7.00;;;14.00;99.90;;;;;;5048831;28;20052;-79
2022/05/11 01:24:35;;;;;;;10.55;6.38;;;13.90;99.90;;;;;;5032754;28;20036;-78
2022/05/11 01:27:21;;;;;;;14.80;7.40;;;14.00;99.90;;;;;;5049963;28;20498;-78
2022/05/11 01:29:46;;;;;;;11.02;6.60;;;13.90;99.90;;;;;;5049779;28;20041;-78
2022/05/11 01:32:12;;;;;;;13.10;7.32;;;13.90;99.90;;;;;;5049762;28;20453;-79
2022/05/11 01:34:37;;;;;;;9.85;6.75;;;14.00;99.90;;;;;;5049261;28;20503;-78
2022/05/11 01:37:04;;;;;;;13.82;7.28;;;13.90;99.90;;;;;;5047690;28;20531;-78
2022/05/11 01:39:29;;;;;;;11.13;6.80;;;13.90;99.90;;;;;;5049519;28;20048;-78
2022/05/11 01:41:55;;;;;;;11.25;6.95;;;13.90;99.90;;;;;;5050885;28;20041;-78
2022/05/11 01:44:21;;;;;;;12.05;7.03;;;13.90;99.90;;;;;;5050556;28;20116;-78
2022/05/11 01:46:50;;;;;;;9.38;6.35;;;13.90;99.90;;;;;;5049969;28;20631;-78
2022/05/11 01:49:16;;;;;;;11.07;6.97;;;13.90;99.90;;;;;;5049649;28;20037;-78
2022/05/11 01:51:42;;;;;;;11.27;6.82;;;13.80;99.90;;;;;;5049757;28;20103;-78
2022/05/11 01:54:08;;;;;;;10.93;7.07;;;13.80;99.90;;;;;;5048737;28;20049;-78
2022/05/11 01:56:34;;;;;;;12.85;7.20;;;13.80;99.90;;;;;;5048888;28;20052;-78
2022/05/11 01:59:00;;;;;;;11.43;7.07;;;13.80;99.90;;;;;;5048608;28;20406;-78
2022/05/11 02:01:29;;;;;;;9.85;6.85;;;13.70;99.90;;;;;;5049491;28;20314;-78
2022/05/11 02:03:55;;;;;;;13.30;6.88;;;13.70;99.90;;;;;;5049010;28;20037;-78
2022/05/11 02:09:04;;;;;;;;;;;13.60;99.90;;;;;;5049856;28;20045;-78
2022/05/11 02:11:30;;;;;;;12.20;7.43;;;13.60;99.90;;;;;;5066052;28;20275;-78
2022/05/11 02:13:59;;;;;;;11.35;7.00;;;13.60;99.90;;;;;;5032161;28;20095;-78
2022/05/11 02:16:25;;;;;;;9.10;6.25;;;13.60;99.90;;;;;;5049128;28;20041;-78
2022/05/11 02:18:52;;;;;;;8.95;6.75;;;13.50;99.90;;;;;;5052073;28;20049;-78
2022/05/11 02:21:17;;;;;;;10.43;6.65;;;13.50;99.90;;;;;;5053040;28;20116;-78
2022/05/11 02:23:43;;;;;;;12.57;6.60;;;13.50;99.90;;;;;;5052797;28;20530;-78
2022/05/11 02:26:11;;;;;;;10.70;6.90;;;13.60;99.90;;;;;;5052918;28;20495;-78
2022/05/11 02:28:37;;;;;;;10.38;6.78;;;13.60;99.90;;;;;;5052612;28;20036;-77
2022/05/11 02:31:03;;;;;;;10.27;6.85;;;13.50;99.90;;;;;;5036206;28;20045;-78
2022/05/11 02:33:28;;;;;;;11.75;6.82;;;13.60;99.90;;;;;;5036280;28;20049;-78
2022/05/11 02:35:55;;;;;;;8.15;6.22;;;13.60;99.90;;;;;;5052260;28;20497;-78
2022/05/11 02:38:30;;;;;;;12.65;7.10;;;13.60;99.90;;;;;;5052822;28;20051;-77
2022/05/11 02:40:56;;;;;;;10.05;6.80;;;13.60;99.90;;;;;;5052285;28;20045;-77
2022/05/11 02:43:22;;;;;;;11.40;7.13;;;13.60;99.90;;;;;;5052593;28;20099;-78
2022/05/11 02:45:49;;;;;;;10.13;6.35;;;13.50;99.90;;;;;;5051927;28;20131;-77
2022/05/11 02:48:17;;;;;;;10.93;6.50;;;13.50;99.90;;;;;;5035546;28;20037;-78
2022/05/11 02:50:48;;;;;;;10.15;6.38;;;13.50;99.90;;;;;;5052657;28;20438;-78
2022/05/11 02:53:15;;;;;;;11.32;6.60;;;13.50;99.90;;;;;;5052616;28;20045;-78
2022/05/11 02:55:43;;;;;;;10.85;6.35;;;13.50;99.90;;;;;;5051896;28;20029;-78
2022/05/11 02:58:10;;;;;;;10.60;6.35;;;13.50;99.90;;;;;;5035817;28;20124;-77
2022/05/11 03:00:37;;;;;;;11.20;6.68;;;13.50;99.90;;;;;;5052158;28;20045;-78
2022/05/11 03:03:04;;;;;;;8.65;5.95;;;13.50;99.90;;;;;;5052525;28;20446;-78
2022/05/11 03:05:31;;;;;;;10.77;5.80;;;13.50;99.90;;;;;;5051743;28;20124;-78
2022/05/11 03:07:56;;;;;;;11.93;6.43;;;13.50;99.90;;;;;;5052283;28;20041;-77
2022/05/11 03:10:22;;;;;;;12.57;6.00;;;13.50;99.90;;;;;;5052233;28;20048;-78
2022/05/11 03:12:48;;;;;;;9.95;6.38;;;13.50;99.90;;;;;;5052114;28;20127;-77
2022/05/11 03:15:13;;;;;;;9.88;5.82;;;13.50;99.90;;;;;;5033999;28;20045;-77
2022/05/11 03:17:39;;;;;;;10.48;5.80;;;13.50;99.90;;;;;;5051318;28;20041;-78
2022/05/11 03:20:06;;;;;;;9.40;5.68;;;13.50;99.90;;;;;;5051684;28;20056;-78
2022/05/11 03:22:32;;;;;;;10.68;6.22;;;13.40;99.90;;;;;;5051843;28;20041;-77
2022/05/11 03:24:57;;;;;;;9.23;5.43;;;13.40;99.90;;;;;;5051335;28;20039;-77
2022/05/11 03:27:23;;;;;;;9.63;5.50;;;13.50;99.90;;;;;;5051855;28;20453;-77
2022/05/11 03:29:49;;;;;;;10.00;5.45;;;13.50;99.90;;;;;;5050894;28;20037;-78
2022/05/11 03:34:59;;;;;;;;;;;13.50;99.90;;;;;;5051508;28;20084;-78
2022/05/11 03:37:24;;;;;;;9.85;5.50;;;13.50;99.90;;;;;;5068838;28;19968;-78
2022/05/11 03:39:50;;;;;;;9.35;5.10;;;13.40;99.90;;;;;;5051517;28;20056;-78
2022/05/11 03:42:18;;;;;;;10.15;6.18;;;13.40;99.90;;;;;;5052918;28;20047;-78
2022/05/11 03:44:44;;;;;;;10.70;5.50;;;13.40;99.90;;;;;;5050801;28;20048;-78
2022/05/11 03:47:10;;;;;;;10.63;5.63;;;13.40;99.90;;;;;;5052988;28;20036;-77
2022/05/11 03:49:35;;;;;;;8.52;6.00;;;13.40;99.90;;;;;;5051799;28;20043;-78
2022/05/11 03:52:02;;;;;;;11.52;5.68;;;13.40;99.90;;;;;;5052781;28;20041;-77
2022/05/11 03:54:27;;;;;;;9.73;5.57;;;13.40;99.90;;;;;;5050666;28;20052;-78
2022/05/11 03:56:53;;;;;;;9.88;5.75;;;13.40;99.90;;;;;;5051020;28;20040;-77
2022/05/11 03:59:19;;;;;;;12.40;5.82;;;13.40;99.90;;;;;;5034624;28;20040;-78
2022/05/11 04:01:44;;;;;;;10.15;5.70;;;13.40;99.90;;;;;;5050861;28;20052;-78
2022/05/11 04:04:10;;;;;;;8.20;5.28;;;13.40;99.90;;;;;;5033928;28;20044;-78
2022/05/11 04:06:35;;;;;;;10.15;6.60;;;13.40;99.90;;;;;;5051130;28;20387;-78
2022/05/11 04:09:01;;;;;;;9.60;5.93;;;13.40;99.90;;;;;;5051158;28;20203;-77
2022/05/11 04:11:29;;;;;;;11.30;6.45;;;13.40;99.90;;;;;;5051031;28;20045;-77
2022/05/11 04:13:54;;;;;;;11.15;6.25;;;13.40;99.90;;;;;;5050466;28;20408;-78
2022/05/11 04:16:20;;;;;;;9.85;6.35;;;13.40;99.90;;;;;;5050763;28;20045;-78
2022/05/11 04:18:46;;;;;;;12.18;6.95;;;13.40;99.90;;;;;;5034325;28;20076;-77
2022/05/11 04:21:12;;;;;;;9.15;5.78;;;13.40;99.90;;;;;;5050981;28;20043;-78
2022/05/11 04:23:40;;;;;;;11.10;5.97;;;13.40;99.90;;;;;;5034590;28;20403;-78
2022/05/11 04:26:07;;;;;;;10.95;6.28;;;13.40;99.90;;;;;;5050339;28;20498;-77
2022/05/11 04:28:33;;;;;;;8.00;5.80;;;13.50;99.90;;;;;;5050666;28;20081;-78
2022/05/11 04:31:03;;;;;;;9.68;5.78;;;13.50;99.90;;;;;;5050508;28;20044;-78
2022/05/11 04:33:29;;;;;;;8.98;5.38;;;13.50;99.90;;;;;;5050568;28;20052;-78
2022/05/11 04:35:55;;;;;;;9.73;5.97;;;13.50;99.90;;;;;;5049051;28;20037;-77
2022/05/11 04:38:21;;;;;;;9.93;5.68;;;13.50;99.90;;;;;;5049934;28;20041;-77
2022/05/11 04:40:46;;;;;;;15.02;5.90;;;13.50;99.90;;;;;;5049927;28;20568;-78
2022/05/11 04:43:12;;;;;;;12.85;5.72;;;13.60;99.90;;;;;;5049130;28;20048;-77
2022/05/11 04:45:43;;;;;;;7.68;5.53;;;13.60;99.90;;;;;;5049836;28;20025;-77
2022/05/11 04:48:09;;;;;;;12.10;5.13;;;13.60;99.90;;;;;;5050446;28;20118;-77
2022/05/11 04:50:41;;;;;;;9.82;5.22;;;13.60;99.90;;;;;;5050299;28;20039;-78
2022/05/11 04:53:08;;;;;;;11.38;5.63;;;13.70;99.90;;;;;;5050281;28;20037;-77
2022/05/11 04:55:33;;;;;;;10.48;5.10;;;13.70;99.90;;;;;;5049614;28;20044;-77
2022/05/11 04:57:59;;;;;;;12.57;5.88;;;13.70;99.90;;;;;;5050370;28;20423;-78
2022/05/11 05:00:25;;;;;;;9.68;5.40;;;13.60;99.90;;;;;;5050128;28;20037;-77
2022/05/11 05:02:51;;;;;;;11.63;5.15;;;13.70;99.90;;;;;;5033131;28;20048;-77
2022/05/11 05:05:19;;;;;;;9.73;5.10;;;13.70;99.90;;;;;;5031746;28;20037;-78
2022/05/11 05:07:45;;;;;;;10.60;5.40;;;13.70;99.90;;;;;;5049617;28;20120;-78
2022/05/11 05:10:13;;;;;;;11.30;5.15;;;13.80;99.90;;;;;;5049366;28;20146;-78
2022/05/11 05:12:40;;;;;;;10.90;5.30;;;13.80;99.90;;;;;;5049431;28;20041;-77
2022/05/11 05:15:06;;;;;;;12.10;5.13;;;13.70;99.90;;;;;;5050772;28;20086;-77
2022/05/11 05:17:31;;;;;;;9.07;5.35;;;13.70;99.90;;;;;;5050133;28;20039;-77
2022/05/11 05:19:57;;;;;;;8.43;5.32;;;13.80;99.90;;;;;;5049773;28;20560;-78
2022/05/11 05:22:22;;;;;;;10.00;5.50;;;13.80;99.90;;;;;;5051244;28;20431;-77
2022/05/11 05:24:48;;;;;;;9.80;5.00;;;13.90;99.90;;;;;;5032620;28;20402;-78
2022/05/11 05:27:17;;;;;;;13.38;5.50;;;13.90;99.90;;;;;;5050120;28;20668;-78
2022/05/11 05:32:27;;;;;;;;;;;13.90;99.90;;;;;;5050378;28;20052;-77
2022/05/11 05:34:53;;;;;;;12.43;5.00;;;13.90;99.90;;;;;;5049204;28;19935;-78
2022/05/11 05:37:19;;;;;;;8.27;5.10;;;13.90;99.90;;;;;;5049778;28;20083;-78
2022/05/11 05:39:46;;;;;;;8.77;5.15;;;13.90;99.90;;;;;;5049685;28;20080;-78
2022/05/11 05:42:19;;;;;;;11.82;5.13;;;14.00;99.90;;;;;;5049698;28;20124;-78
2022/05/11 05:44:45;;;;;;;;;;;14.00;99.90;;;;;;5049687;28;20406;-78
2022/05/11 05:47:11;;;;;;;11.48;4.97;;;14.00;99.90;;;;;;5049703;28;19996;-78
2022/05/11 05:49:37;;;;;;;10.48;5.25;;;14.10;99.90;;;;;;5048260;28;20128;-77
2022/05/11 05:52:04;;;;;;;15.82;5.63;;;14.10;99.90;;;;;;5050023;28;20088;-77
2022/05/11 05:54:34;;;;;;;14.40;5.78;;;14.20;99.90;;;;;;5036340;28;20052;-79
2022/05/11 05:57:00;;;;;;;14.38;6.28;;;14.30;99.90;;;;;;5052873;28;20040;-78
2022/05/11 05:59:25;;;;;;;9.45;5.95;;;14.30;99.90;;;;;;5069391;28;20499;-77
2022/05/11 06:01:51;;;;;;;12.52;5.28;;;14.30;99.90;;;;;;5052793;28;20505;-78
2022/05/11 06:04:16;;;;;;;12.43;5.70;;;14.30;99.90;;;;;;5052833;28;20036;-78
2022/05/11 06:06:42;;;;;;;12.73;5.63;;;14.40;99.90;;;;;;5053605;28;20128;-78
2022/05/11 06:09:09;;;;;;;12.43;5.68;;;14.40;99.90;;;;;;5053275;28;20037;-79
2022/05/11 06:11:38;;;;;;;10.90;5.20;;;14.50;99.90;;;;;;5053414;28;20045;-78
2022/05/11 06:14:04;;;;;;;11.65;5.28;;;14.50;99.90;;;;;;5069538;28;20523;-78
2022/05/11 06:16:31;;;;;;;12.63;5.40;;;14.60;99.90;;;;;;5053253;28;20128;-78
2022/05/11 06:18:57;;;;;;;13.43;5.82;;;14.60;99.90;;;;;;5053039;28;20525;-78
2022/05/11 06:21:23;;;;;;;13.30;5.78;;;14.70;99.90;;;;;;5036729;28;20057;-78
2022/05/11 06:23:49;;;;;;;13.30;5.82;;;14.80;99.90;;;;;;5052448;28;20430;-78
2022/05/11 06:26:16;;;;;;;11.48;5.40;;;14.90;99.90;;;;;;5053275;28;20525;-79
2022/05/11 06:28:42;;;;;;;12.43;5.80;;;15.00;99.90;;;;;;5054400;28;20410;-77
2022/05/11 06:31:09;;;;;;;14.60;6.53;;;15.20;99.90;;;;;;5052930;28;20036;-78
2022/05/11 06:33:35;;;;;;;14.02;5.68;;;15.40;99.90;;;;;;5052976;28;20384;-78
2022/05/11 06:36:02;;;;;;;15.93;5.55;;;15.60;99.90;;;;;;5035951;28;20047;-78
2022/05/11 06:38:28;;;;;;;10.90;5.60;;;15.60;99.90;;;;;;5052801;28;20041;-78
2022/05/11 06:40:53;;;;;;;16.30;6.30;;;15.70;99.90;;;;;;5045947;28;20132;-79
2022/05/11 06:43:19;;;;;;;10.95;6.07;;;15.70;99.90;;;;;;5047486;28;20029;-78
2022/05/11 06:45:44;;;;;;;13.30;5.63;;;15.70;99.90;;;;;;5044811;28;20120;-78
2022/05/11 06:48:10;;;;;;;17.08;6.88;;;15.70;99.90;;;;;;5047636;28;20028;-78
2022/05/11 06:50:36;;;;;;;15.40;6.35;;;15.70;99.90;;;;;;5046317;28;20060;-78
2022/05/11 06:53:09;;;;;;;13.80;6.00;;;15.60;99.90;;;;;;5048420;28;20094;-78
2022/05/11 07:01:24;;;;;;;17.38;5.93;;;15.60;99.90;;;;;;5009937;28;20424;-79
2022/05/11 07:03:49;;;;;;;15.13;5.57;;;15.60;99.90;;;;;;5028748;28;20048;-78
2022/05/11 07:06:15;;;;;;;15.45;5.75;;;15.60;99.90;;;;;;5046136;28;20133;-79
2022/05/11 07:08:44;;;;;;;17.55;5.78;;;15.60;99.90;;;;;;5062925;28;20029;-79
2022/05/11 07:13:56;;;;;;;12.90;6.00;;;15.70;99.90;;;;;;5044304;28;20078;-79
2022/05/11 07:16:23;;;;;;;13.13;5.75;;;15.80;99.90;;;;;;5045770;28;20060;-79
2022/05/11 07:18:49;;;;;;;14.40;6.00;;;15.90;99.90;;;;;;5052268;28;20506;-79
2022/05/11 07:21:14;;;;;;;16.73;6.18;;;15.90;99.90;;;;;;5051902;28;20068;-79
2022/05/11 07:23:40;;;;;;;12.30;5.97;;;16.00;99.90;;;;;;5051964;28;20040;-80
2022/05/11 07:26:06;;;;;;;12.40;6.40;;;16.10;99.90;;;;;;5035245;28;20032;-79
2022/05/11 07:28:32;;;;;;;11.57;5.93;;;16.10;99.90;;;;;;5051930;28;20518;-79
2022/05/11 07:30:58;;;;;;;16.00;6.20;;;16.20;99.90;;;;;;5051869;28;20037;-79
2022/05/11 07:33:24;;;;;;;14.98;5.60;;;16.20;99.90;;;;;;5052059;28;20437;-79
2022/05/11 07:35:50;;;;;;;14.98;5.47;;;16.30;99.90;;;;;;5050894;28;20041;-79
2022/05/11 07:38:18;;;;;;;12.00;5.15;;;16.40;99.90;;;;;;5034888;28;20098;-80
2022/05/11 07:40:44;;;;;;;11.23;4.65;;;16.50;99.90;;;;;;5051162;28;20037;-79
2022/05/11 07:43:11;;;;;;;11.43;4.35;;;16.60;99.90;;;;;;5051560;28;20036;-81
2022/05/11 07:45:38;;;;;;;13.40;4.07;;;16.60;99.90;;;;;;5034186;28;20033;-80
2022/05/11 07:48:04;;;;;;;15.80;4.20;;;16.60;99.90;;;;;;5051335;28;20041;-79
2022/05/11 07:50:31;;;;;;;12.10;3.85;;;16.70;99.90;;;;;;5051565;28;20548;-80
2022/05/11 07:52:57;;;;;;;10.65;3.70;;;16.60;99.90;;;;;;5050824;28;20044;-81
2022/05/11 07:55:24;;;;;;;11.40;3.95;;;16.70;99.90;;;;;;5051404;28;20037;-80
2022/05/11 08:00:34;;;;;;;13.23;4.78;;;16.70;99.90;;;;;;5051751;28;20135;-81
2022/05/11 08:03:00;;;;;;;12.20;3.97;;;16.80;99.90;;;;;;5051103;28;20033;-80
2022/05/11 08:05:26;;;;;;;11.63;3.30;;;16.80;99.90;;;;;;5050851;28;20052;-80
2022/05/11 08:07:55;;;;;;;14.43;4.13;;;16.80;99.90;;;;;;5047070;28;20033;-82
2022/05/11 08:10:20;;;;;;;14.25;4.43;;;17.00;99.90;;;;;;5050865;28;20033;-81
2022/05/11 08:12:46;;;;;;;11.15;3.65;;;17.10;99.90;;;;;;5051326;28;20037;-80
2022/05/11 08:15:14;;;;;;;12.63;4.20;;;17.30;99.90;;;;;;5050109;28;20499;-81
2022/05/11 08:17:42;;;;;;;13.88;3.85;;;17.50;99.90;;;;;;5040985;28;20056;-80
2022/05/11 08:20:14;;;;;;;12.77;4.07;;;17.50;99.90;;;;;;5031308;28;20092;-82
2022/05/11 08:22:42;;;;;;;16.88;4.50;;;17.60;99.90;;;;;;5041267;28;20487;-81
2022/05/11 08:25:09;;;;;;;9.95;4.10;;;17.70;99.90;;;;;;5051246;28;20037;-80
2022/05/11 08:27:34;;;;;;;10.70;3.50;;;17.60;99.90;;;;;;5051889;28;20115;-83
2022/05/11 08:35:29;;;;;;;;;;;18.00;99.90;;;;;;5031415;28;20045;-82
2022/05/11 08:37:56;;;;;;;10.63;3.33;;;17.90;99.90;;;;;;5033271;28;19917;-82
2022/05/11 08:40:37;;;;;;;15.50;3.67;;;17.80;99.90;;;;;;5046932;28;20040;-80
2022/05/11 08:43:05;;;;;;;11.85;3.67;;;17.80;99.90;;;;;;5035855;28;20084;-82
2022/05/11 08:46:08;;;;;;;12.43;3.60;;;17.90;99.90;;;;;;5051401;28;20490;-82
2022/05/11 08:48:45;;;;;;;13.55;3.50;;;18.00;99.90;;;;;;5045811;28;20064;-81
2022/05/11 08:51:20;;;;;;;14.73;3.60;;;18.10;99.90;;;;;;5051496;28;20465;-83
2022/05/11 08:53:52;;;;;;;10.57;3.38;;;18.10;99.90;;;;;;5045643;28;20033;-83
2022/05/11 08:56:20;;;;;;;15.02;3.75;;;18.10;99.90;;;;;;5049347;28;20044;-83
2022/05/11 08:58:52;;;;;;;13.57;3.70;;;18.10;99.90;;;;;;5050228;28;20375;-81
2022/05/11 09:01:29;;;;;;;15.13;3.63;;;18.20;99.90;;;;;;5028302;28;20149;-83
2022/05/11 09:03:58;;;;;;;16.38;3.80;;;18.20;99.90;;;;;;5050399;28;20120;-82
2022/05/11 09:06:30;;;;;;;13.35;3.50;;;18.30;99.90;;;;;;5065047;28;20041;-82
2022/05/11 09:08:58;;;;;;;14.00;3.92;;;18.20;99.90;;;;;;5059124;28;20041;-85
2022/05/11 09:11:27;;;;;;;12.40;3.80;;;18.10;99.90;;;;;;5049034;28;20044;-83
2022/05/11 09:13:52;;;;;;;14.18;3.80;;;18.10;99.90;;;;;;5048546;28;20052;-84
2022/05/11 09:16:36;;;;;;;12.75;3.45;;;18.00;99.90;;;;;;5046346;28;20465;-83
2022/05/11 09:19:23;;;;;;;12.93;3.60;;;17.90;99.90;;;;;;5065956;28;20491;-85
2022/05/11 09:22:07;;;;;;;18.65;3.58;;;17.90;99.90;;;;;;5030684;28;20040;-83
2022/05/11 09:24:43;;;;;;;;;;;17.90;99.90;;;;;;5029635;28;20080;-83
2022/05/11 09:27:11;;;;;;;14.02;3.78;;;18.10;99.90;;;;;;5055595;28;19924;-82
2022/05/11 09:29:41;;;;;;;12.20;3.63;;;18.50;99.90;;;;;;5049850;28;20383;-82
2022/05/11 09:32:37;;;;;;;12.23;3.65;;;18.80;99.90;;;;;;5045892;28;20037;-83
2022/05/11 09:35:26;;;;;;;14.57;3.70;;;19.00;99.90;;;;;;5058814;28;20044;-83
2022/05/11 09:38:05;;;;;;;12.75;3.63;;;19.20;99.90;;;;;;5058004;28;20154;-84
2022/05/11 09:40:47;;;;;;;10.98;3.47;;;19.30;99.90;;;;;;5061892;28;20051;-84
2022/05/11 09:43:35;;;;;;;16.08;3.95;;;19.40;99.90;;;;;;5048566;28;20075;-84
2022/05/11 09:46:18;;;;;;;9.88;3.25;;;19.60;99.90;;;;;;5044818;28;20044;-83
2022/05/11 09:48:57;;;;;;;11.15;3.20;;;19.50;99.90;;;;;;5040995;28;20450;-83
2022/05/11 09:51:46;;;;;;;12.55;3.20;;;19.40;99.90;;;;;;5045364;28;20039;-85
2022/05/11 09:54:38;;;;;;;10.95;2.90;;;19.40;99.90;;;;;;5037135;28;20052;-82
2022/05/11 09:57:17;;;;;;;9.55;2.20;;;19.50;99.90;;;;;;5048557;28;20037;-82
2022/05/11 09:59:51;;;;;;;7.60;2.13;;;19.50;99.90;;;;;;5065881;28;20056;-84
2022/05/11 10:02:32;;;;;;;11.02;2.47;;;19.30;99.90;;;;;;5044067;28;20067;-83
2022/05/11 10:05:09;;;;;;;10.93;2.20;;;19.20;99.90;;;;;;5046724;28;20040;-83
2022/05/11 10:07:45;;;;;;;12.90;2.53;;;19.30;99.90;;;;;;5050384;28;20044;-82
2022/05/11 10:10:44;;;;;;;15.95;2.60;;;19.50;99.90;;;;;;5049324;28;20029;-83
2022/05/11 10:13:23;;;;;;;7.68;2.35;;;19.90;99.90;;;;;;5034891;28;20518;-84
2022/05/11 10:21:53;;;;;;;10.57;2.75;;;20.20;99.90;;;;;;5045432;28;20045;-84
2022/05/11 10:24:38;;;;;;;8.68;2.65;;;20.30;99.90;;;;;;5031894;28;20033;-84
2022/05/11 10:27:28;;;;;;;9.75;2.83;;;20.40;99.90;;;;;;5046667;28;20045;-85
2022/05/11 10:30:08;;;;;;;12.68;2.90;;;20.60;99.90;;;;;;5049612;28;20045;-83
2022/05/11 10:32:34;;;;;;;9.15;2.95;;;20.70;99.90;;;;;;5044305;28;20675;-83
2022/05/11 10:35:23;;;;;;;10.85;3.17;;;20.70;99.90;;;;;;5048997;28;20045;-82
2022/05/11 10:37:59;;;;;;;10.30;3.08;;;20.80;99.90;;;;;;5047679;28;20355;-84
2022/05/11 10:40:43;;;;;;;11.60;3.20;;;21.10;99.90;;;;;;5052838;28;20510;-85
2022/05/11 10:43:28;;;;;;;;;;;21.10;99.90;;;;;;5031756;28;20120;-83
2022/05/11 10:46:11;;;;;;;12.43;3.25;;;21.10;99.90;;;;;;5051882;28;19925;-84
2022/05/11 10:49:04;;;;;;;12.43;3.45;;;21.50;99.90;;;;;;5052682;28;20039;-83
2022/05/11 10:51:36;;;;;;;8.48;2.70;;;21.60;99.90;;;;;;5052341;28;20123;-84
2022/05/11 10:54:28;;;;;;;11.35;3.17;;;21.80;99.90;;;;;;5051825;28;20048;-85
2022/05/11 10:57:08;;;;;;;13.35;3.33;;;22.00;99.90;;;;;;5031808;28;20037;-85
2022/05/11 10:59:59;;;;;;;9.35;3.17;;;22.10;99.90;;;;;;5051694;28;20045;-84
2022/05/11 11:02:43;;;;;;;10.02;2.83;;;22.00;99.90;;;;;;5048703;28;20498;-84
2022/05/11 11:05:33;;;;;;;9.05;3.00;;;22.20;99.90;;;;;;5049579;28;20033;-84
2022/05/11 11:08:27;;;;;;;10.65;3.08;;;22.20;99.90;;;;;;5043356;28;20067;-85
2022/05/11 11:11:08;;;;;;;11.35;3.17;;;22.20;99.90;;;;;;5051966;28;20041;-85
2022/05/11 11:13:54;;;;;;;11.15;2.88;;;22.30;99.90;;;;;;5034637;28;20048;-84
2022/05/11 11:16:25;;;;;;;10.50;2.95;;;22.30;99.90;;;;;;5067672;28;20056;-85
2022/05/11 11:18:51;;;;;;;10.10;2.80;;;21.90;99.90;;;;;;5052220;28;20040;-85
2022/05/11 11:21:20;;;;;;;11.15;3.15;;;21.60;99.90;;;;;;5051045;28;20407;-86
2022/05/11 11:24:06;;;;;;;10.30;3.33;;;21.30;99.90;;;;;;5047650;28;20037;-84
2022/05/11 11:26:50;;;;;;;8.48;3.17;;;20.90;99.90;;;;;;5049061;28;20045;-83
2022/05/11 11:29:18;;;;;;;;;;;20.70;99.90;;;;;;5032802;28;20033;-85
2022/05/11 11:31:59;;;;;;;9.07;3.30;;;20.60;99.90;;;;;;5047837;28;20340;-84
2022/05/11 11:34:37;;;;;;;9.40;3.15;;;20.10;99.90;;;;;;5048751;28;20041;-85
2022/05/11 11:37:25;;;;;;;10.27;2.88;;;20.10;99.90;;;;;;5035635;28;20040;-85
2022/05/11 11:39:52;;;;;;;11.40;2.88;;;20.40;99.90;;;;;;5035335;28;20503;-84
2022/05/11 11:42:39;;;;;;;10.70;2.85;;;20.70;99.90;;;;;;5051931;28;20166;-84
2022/05/11 11:45:13;;;;;;;10.13;2.30;;;21.00;99.90;;;;;;5050869;28;20045;-84
2022/05/11 11:47:59;;;;;;;10.57;2.92;;;21.10;99.90;;;;;;5051665;28;20563;-83
2022/05/11 11:50:53;;;;;;;9.88;2.40;;;20.90;99.90;;;;;;5034232;28;20037;-85
2022/05/11 11:53:43;;;;;;;10.63;2.20;;;20.60;99.90;;;;;;5051532;28;20037;-85
2022/05/11 11:56:24;;;;;;;7.15;2.15;;;20.60;99.90;;;;;;5051849;28;20271;-83
2022/05/11 11:59:07;;;;;;;12.52;2.25;;;21.00;99.90;;;;;;5051322;28;20048;-84
2022/05/11 12:01:41;;;;;;;8.43;2.08;;;21.10;99.90;;;;;;5034568;28;20049;-85
2022/05/11 12:04:28;;;;;;;10.23;2.25;;;21.10;98.30;;;;;;5050261;28;20127;-84
2022/05/11 12:15:30;;;;;;;5.35;1.38;;;22.10;98.60;;;;;;5050377;28;20055;-83
2022/05/11 12:17:55;;;;;;;5.75;1.23;;;22.20;97.60;;;;;;5051292;28;20253;-83
2022/05/11 12:20:21;;;;;;;5.57;1.27;;;22.50;96.60;;;;;;5034370;28;20047;-86
2022/05/11 12:22:53;;;;;;;7.22;1.63;;;22.60;96.90;;;;;;5034479;28;20036;-86
2022/05/11 12:25:36;;;;;;;6.07;1.27;;;22.70;96.50;;;;;;5033724;28;20037;-84
2022/05/11 12:28:17;;;;;;;7.97;1.40;;;22.80;95.40;;;;;;5051066;28;20048;-85
2022/05/11 12:30:43;;;;;;;5.68;1.35;;;22.90;94.90;;;;;;5050783;28;20068;-85
2022/05/11 12:33:18;;;;;;;5.55;1.00;;;23.10;94.80;;;;;;5049779;28;20052;-86
2022/05/11 12:35:46;;;;;;;4.28;0.93;;;23.10;94.50;;;;;;5049805;28;20119;-81
2022/05/11 12:38:24;;;;;;;6.82;1.70;;;23.10;93.10;;;;;;5034088;28;20513;-84
2022/05/11 12:40:52;;;;;;;7.68;1.30;;;23.00;93.60;;;;;;5050842;28;20044;-85
2022/05/11 12:43:29;;;;;;;7.65;1.63;;;23.10;94.20;;;;;;5051009;28;20441;-85
2022/05/11 12:46:06;;;;;;;12.15;1.95;;;23.40;93.90;;;;;;5050376;28;20418;-85
2022/05/11 12:48:33;;;;;;;9.45;1.48;;;23.30;93.70;;;;;;5034087;28;20041;-86
2022/05/11 12:51:16;;;;;;;6.72;1.45;;;23.30;93.20;;;;;;5033947;28;20063;-84
2022/05/11 12:53:54;;;;;;;8.70;1.70;;;23.30;92.40;;;;;;5050195;28;20044;-87
2022/05/11 12:56:29;;;;;;;9.80;1.83;;;23.40;93.30;;;;;;5050236;28;20498;-85
2022/05/11 12:58:57;;;;;;;9.02;1.90;;;23.00;92.80;;;;;;5033695;28;20037;-85
2022/05/11 13:01:26;;;;;;;7.05;2.03;;;23.10;92.70;;;;;;5032730;28;20049;-85
2022/05/11 13:03:54;;;;;;;9.18;2.13;;;23.10;93.20;;;;;;5049735;28;20036;-85
2022/05/11 13:06:33;;;;;;;9.05;2.30;;;23.10;93.10;;;;;;5050039;28;20081;-86
2022/05/11 13:09:06;;;;;;;12.88;2.28;;;23.10;93.00;;;;;;5050211;28;20044;-86
2022/05/11 13:11:33;;;;;;;9.35;2.28;;;23.00;93.00;;;;;;5033129;28;20045;-88
2022/05/11 13:14:00;;;;;;;13.00;2.00;;;22.90;92.90;;;;;;5049655;28;20098;-86
2022/05/11 13:16:31;;;;;;;9.38;2.00;;;22.60;92.50;;;;;;5050274;28;20048;-86
2022/05/11 13:19:25;;;;;;;9.55;2.00;;;22.50;92.80;;;;;;5034083;28;20406;-87
2022/05/11 13:21:53;;;;;;;8.02;2.03;;;22.60;93.10;;;;;;5048185;28;20053;-87
2022/05/11 13:24:37;;;;;;;9.13;2.15;;;23.00;93.60;;;;;;5033303;28;20124;-85
2022/05/11 13:27:23;;;;;;;;;;;23.10;91.60;;;;;;5051068;28;20402;-87
2022/05/11 13:29:48;;;;;;;7.35;2.10;;;22.80;92.40;;;;;;5033622;28;20294;-87
2022/05/11 13:32:24;;;;;;;10.75;2.05;;;22.70;92.90;;;;;;5032236;28;20043;-86
2022/05/11 13:34:49;;;;;;;11.45;2.10;;;22.40;93.00;;;;;;5029505;28;20037;-87
2022/05/11 13:37:32;;;;;;;16.73;2.30;;;21.80;92.80;;;;;;5030208;28;20510;-87
2022/05/11 13:39:57;;;;;;;9.52;2.10;;;21.40;92.90;;;;;;5030102;28;20124;-86
2022/05/11 13:42:26;;;;;;;8.43;1.83;;;21.20;93.30;;;;;;5042452;28;20128;-85